Time;durP1;ratioP1;P1;durP2;ratioP2;P2;SDS_P1;SDS_P2;PMS_P1;PMS_P2;Temp;Humidity;BMP_temperature;BMP_pressure;BME280_temperature;BME280_humidity;BME280_pressure;Samples;Min_cycle;Max_cycle;Signal;HPM_P1;HPM_P2
2020/12/05 00:01:06;;;;;;;22.10;12.90;;;;;;;;;;5024914;28;20232;-77
2020/12/05 00:03:33;;;;;;;22.67;12.73;;;;;;;;;;5020106;28;20213;-78
2020/12/05 00:06:01;;;;;;;24.87;13.60;;;;;;;;;;5000187;28;20555;-78
2020/12/05 00:08:29;;;;;;;23.67;13.07;;;;;;;;;;5020319;28;20215;-77
2020/12/05 00:10:57;;;;;;;22.83;12.27;;;;;;;;;;5035046;28;20231;-77
2020/12/05 00:13:24;;;;;;;22.03;13.30;;;;;;;;;;5030768;28;20219;-77
2020/12/05 00:15:52;;;;;;;20.57;12.13;;;;;;;;;;5007285;28;20220;-77
2020/12/05 00:18:20;;;;;;;26.27;13.27;;;;;;;;;;5035136;28;20224;-79
2020/12/05 00:20:48;;;;;;;22.50;12.17;;;;;;;;;;5041666;28;20708;-77
2020/12/05 00:23:16;;;;;;;23.10;14.37;;;;;;;;;;5006727;28;20208;-78
2020/12/05 00:25:43;;;;;;;23.67;13.90;;;;;;;;;;5024225;28;20212;-77
2020/12/05 00:28:11;;;;;;;26.40;13.60;;;;;;;;;;5046422;28;20224;-77
2020/12/05 00:30:39;;;;;;;25.50;14.43;;;;;;;;;;5021463;28;20208;-78
2020/12/05 00:33:06;;;;;;;24.93;14.10;;;;;;;;;;5010268;28;20200;-78
2020/12/05 00:35:35;;;;;;;21.60;13.03;;;;;;;;;;5024110;28;20207;-78
2020/12/05 00:38:02;;;;;;;24.77;13.03;;;;;;;;;;5055192;28;20216;-78
2020/12/05 00:40:30;;;;;;;23.77;13.20;;;;;;;;;;5003806;28;20204;-78
2020/12/05 00:42:58;;;;;;;21.03;12.20;;;;;;;;;;5021464;28;20220;-78
2020/12/05 00:45:26;;;;;;;21.27;12.20;;;;;;;;;;5025067;28;20209;-78
2020/12/05 00:47:54;;;;;;;21.43;12.63;;;;;;;;;;5033610;28;20690;-78
2020/12/05 00:50:22;;;;;;;22.23;12.83;;;;;;;;;;5009588;28;20200;-78
2020/12/05 00:52:51;;;;;;;19.53;12.47;;;;;;;;;;5006213;28;20229;-78
2020/12/05 00:55:20;;;;;;;22.37;12.37;;;;;;;;;;5009070;28;20220;-78
2020/12/05 00:57:48;;;;;;;21.50;12.53;;;;;;;;;;5052524;28;20216;-77
2020/12/05 01:00:17;;;;;;;20.53;12.00;;;;;;;;;;5025918;28;20228;-78
2020/12/05 01:02:45;;;;;;;19.30;11.80;;;;;;;;;;5038172;28;20242;-79
2020/12/05 01:05:13;;;;;;;21.47;13.47;;;;;;;;;;5023462;28;20200;-79
2020/12/05 01:07:40;;;;;;;21.43;13.07;;;;;;;;;;5021670;28;20394;-78
2020/12/05 01:10:09;;;;;;;23.83;13.10;;;;;;;;;;5026494;28;20211;-78
2020/12/05 01:12:36;;;;;;;22.73;13.27;;;;;;;;;;5021194;28;20556;-77
2020/12/05 01:15:04;;;;;;;25.17;14.17;;;;;;;;;;5028143;28;20227;-77
2020/12/05 01:17:32;;;;;;;21.87;13.27;;;;;;;;;;5028965;28;20223;-78
2020/12/05 01:20:00;;;;;;;34.53;18.70;;;;;;;;;;5032924;28;20232;-78
2020/12/05 01:22:29;;;;;;;20.30;12.50;;;;;;;;;;5010333;28;20601;-77
2020/12/05 01:24:56;;;;;;;23.33;13.13;;;;;;;;;;5023212;28;20700;-77
2020/12/05 01:27:25;;;;;;;26.07;13.13;;;;;;;;;;5058153;28;20216;-78
2020/12/05 01:29:53;;;;;;;22.13;12.57;;;;;;;;;;5032951;28;20209;-79
2020/12/05 01:32:20;;;;;;;21.27;12.83;;;;;;;;;;5029177;28;20232;-78
2020/12/05 01:34:48;;;;;;;20.47;12.93;;;;;;;;;;5043961;28;20205;-78
2020/12/05 01:37:16;;;;;;;19.90;12.00;;;;;;;;;;5026440;28;20224;-78
2020/12/05 01:39:44;;;;;;;20.63;12.57;;;;;;;;;;5006659;28;20217;-77
2020/12/05 01:42:12;;;;;;;17.53;11.27;;;;;;;;;;5020810;28;20235;-78
2020/12/05 01:44:40;;;;;;;20.47;12.97;;;;;;;;;;5021009;28;20213;-78
2020/12/05 01:47:10;;;;;;;20.67;12.03;;;;;;;;;;5009257;28;20204;-78
2020/12/05 01:49:38;;;;;;;22.57;12.97;;;;;;;;;;5047517;28;20200;-78
2020/12/05 01:52:06;;;;;;;19.63;11.30;;;;;;;;;;5027322;28;20235;-78
2020/12/05 01:54:35;;;;;;;19.83;12.53;;;;;;;;;;5024338;28;20201;-78
2020/12/05 01:57:04;;;;;;;17.10;10.70;;;;;;;;;;5025607;28;20208;-79
2020/12/05 01:59:32;;;;;;;15.53;10.40;;;;;;;;;;5026844;28;20244;-78
2020/12/05 02:02:02;;;;;;;16.03;10.63;;;;;;;;;;5027230;28;20232;-79
2020/12/05 02:04:31;;;;;;;18.13;11.13;;;;;;;;;;5029185;28;20212;-77
2020/12/05 02:07:24;;;;;;;17.73;10.97;;;;;;;;;;5025336;28;20200;-79
2020/12/05 02:09:53;;;;;;;15.13;10.33;;;;;;;;;;5047872;28;20208;-79
2020/12/05 02:12:29;;;;;;;16.37;10.60;;;;;;;;;;5034110;28;20216;-77
2020/12/05 02:15:01;;;;;;;15.23;10.27;;;;;;;;;;5056192;28;20215;-77
2020/12/05 02:17:30;;;;;;;15.83;10.13;;;;;;;;;;5042109;28;20219;-77
2020/12/05 02:19:58;;;;;;;13.73;9.73;;;;;;;;;;5040946;28;20223;-77
2020/12/05 02:22:29;;;;;;;15.10;9.90;;;;;;;;;;5038670;28;20231;-78
2020/12/05 02:24:58;;;;;;;17.10;10.57;;;;;;;;;;5032214;28;20220;-78
2020/12/05 02:27:26;;;;;;;15.03;9.90;;;;;;;;;;5025561;28;20208;-78
2020/12/05 02:29:54;;;;;;;15.77;9.43;;;;;;;;;;5035829;28;20196;-78
2020/12/05 02:32:22;;;;;;;14.33;9.10;;;;;;;;;;5042424;28;20243;-78
2020/12/05 02:34:49;;;;;;;18.67;11.03;;;;;;;;;;5050567;28;20212;-78
2020/12/05 02:37:20;;;;;;;14.73;9.47;;;;;;;;;;5025683;28;20204;-80
2020/12/05 02:39:48;;;;;;;13.17;8.80;;;;;;;;;;5050966;28;20224;-79
2020/12/05 02:42:16;;;;;;;14.33;10.23;;;;;;;;;;5051919;28;20211;-78
2020/12/05 02:44:45;;;;;;;13.77;8.77;;;;;;;;;;5041502;28;20204;-79
2020/12/05 02:47:13;;;;;;;12.27;8.17;;;;;;;;;;5054048;28;20215;-78
2020/12/05 02:49:41;;;;;;;10.57;7.40;;;;;;;;;;5019981;28;20220;-78
2020/12/05 02:52:08;;;;;;;11.43;8.43;;;;;;;;;;5031030;28;20228;-78
2020/12/05 02:54:36;;;;;;;11.73;7.23;;;;;;;;;;5069457;28;20219;-78
2020/12/05 02:57:04;;;;;;;11.30;7.53;;;;;;;;;;5032498;28;20208;-78
2020/12/05 02:59:33;;;;;;;9.10;6.03;;;;;;;;;;5016042;28;20224;-78
2020/12/05 03:02:01;;;;;;;8.97;6.00;;;;;;;;;;5035095;28;20693;-77
2020/12/05 03:04:28;;;;;;;9.97;6.97;;;;;;;;;;5027106;28;20231;-79
2020/12/05 03:06:58;;;;;;;9.33;6.57;;;;;;;;;;5033342;28;20212;-79
2020/12/05 03:09:26;;;;;;;8.43;6.17;;;;;;;;;;5062758;28;20215;-77
2020/12/05 03:11:54;;;;;;;9.97;6.17;;;;;;;;;;5034588;28;20243;-78
2020/12/05 03:14:22;;;;;;;7.97;6.33;;;;;;;;;;5039718;28;20220;-78
2020/12/05 03:16:50;;;;;;;8.97;5.67;;;;;;;;;;5047952;28;20197;-78
2020/12/05 03:19:18;;;;;;;8.33;5.67;;;;;;;;;;5036041;28;20227;-79
2020/12/05 03:21:46;;;;;;;8.37;5.83;;;;;;;;;;5031052;28;20228;-79
2020/12/05 03:24:13;;;;;;;8.53;6.27;;;;;;;;;;5025831;28;20211;-78
2020/12/05 03:26:41;;;;;;;8.10;5.67;;;;;;;;;;5027135;28;20207;-78
2020/12/05 03:29:08;;;;;;;9.03;6.10;;;;;;;;;;5025910;28;20217;-78
2020/12/05 03:31:47;;;;;;;7.73;5.60;;;;;;;;;;5033124;28;20311;-78
2020/12/05 03:34:16;;;;;;;7.53;5.43;;;;;;;;;;5055750;28;20204;-78
2020/12/05 03:36:44;;;;;;;7.30;5.20;;;;;;;;;;5032667;28;20231;-78
2020/12/05 03:39:12;;;;;;;6.73;5.13;;;;;;;;;;5034166;28;20581;-78
2020/12/05 03:41:39;;;;;;;6.03;4.77;;;;;;;;;;5064964;28;20234;-78
2020/12/05 03:44:07;;;;;;;5.87;4.40;;;;;;;;;;5015870;28;20209;-79
2020/12/05 03:46:35;;;;;;;5.13;4.57;;;;;;;;;;5016854;28;20665;-78
2020/12/05 03:49:03;;;;;;;6.27;4.93;;;;;;;;;;5065224;28;20212;-78
2020/12/05 03:51:31;;;;;;;6.50;4.97;;;;;;;;;;5065563;28;20709;-78
2020/12/05 03:53:59;;;;;;;6.87;5.23;;;;;;;;;;5019000;28;20212;-79
2020/12/05 03:56:27;;;;;;;6.50;5.07;;;;;;;;;;5031129;28;20203;-80
2020/12/05 03:58:55;;;;;;;8.50;6.03;;;;;;;;;;5032586;28;20689;-79
2020/12/05 04:01:22;;;;;;;7.77;5.53;;;;;;;;;;5025595;28;20239;-79
2020/12/05 04:03:50;;;;;;;9.33;5.77;;;;;;;;;;5009317;28;20219;-79
2020/12/05 04:06:17;;;;;;;8.60;5.57;;;;;;;;;;5031189;28;20210;-79
2020/12/05 04:08:47;;;;;;;7.93;5.77;;;;;;;;;;5032544;28;20208;-79
2020/12/05 04:11:15;;;;;;;7.50;5.50;;;;;;;;;;5028707;28;20228;-79
2020/12/05 04:13:42;;;;;;;7.43;5.03;;;;;;;;;;5041313;28;20214;-79
2020/12/05 04:16:10;;;;;;;6.67;4.70;;;;;;;;;;5013234;28;20212;-79
2020/12/05 04:18:37;;;;;;;7.27;6.00;;;;;;;;;;5007074;28;20216;-78
2020/12/05 04:21:06;;;;;;;7.83;5.90;;;;;;;;;;5025085;28;20275;-79
2020/12/05 04:23:33;;;;;;;7.10;5.13;;;;;;;;;;5036023;28;20207;-78
2020/12/05 04:26:02;;;;;;;6.87;4.97;;;;;;;;;;5025660;28;20211;-79
2020/12/05 04:28:29;;;;;;;6.43;5.20;;;;;;;;;;5048151;28;20208;-79
2020/12/05 04:30:57;;;;;;;6.07;4.73;;;;;;;;;;5031116;28;20228;-79
2020/12/05 04:33:25;;;;;;;6.53;4.93;;;;;;;;;;5021637;28;20243;-79
2020/12/05 04:35:53;;;;;;;6.40;5.13;;;;;;;;;;5026285;28;20216;-78
2020/12/05 04:38:21;;;;;;;5.37;4.60;;;;;;;;;;5028205;28;20666;-79
2020/12/05 04:40:48;;;;;;;7.43;5.00;;;;;;;;;;5010598;28;20216;-79
2020/12/05 04:43:17;;;;;;;8.67;4.97;;;;;;;;;;5007744;28;20204;-78
2020/12/05 04:45:44;;;;;;;7.50;5.13;;;;;;;;;;5007415;28;20209;-79
2020/12/05 04:48:12;;;;;;;6.40;5.30;;;;;;;;;;5039860;28;20208;-79
2020/12/05 04:50:42;;;;;;;6.07;5.20;;;;;;;;;;5043020;28;20712;-79
2020/12/05 04:53:11;;;;;;;7.60;5.70;;;;;;;;;;5043734;28;20566;-79
2020/12/05 04:55:41;;;;;;;6.57;5.20;;;;;;;;;;5022818;28;20201;-79
2020/12/05 04:58:15;;;;;;;6.10;5.07;;;;;;;;;;5010470;28;20200;-79
2020/12/05 05:00:44;;;;;;;8.40;5.97;;;;;;;;;;5025581;28;20231;-79
2020/12/05 05:03:15;;;;;;;9.27;5.97;;;;;;;;;;5020644;28;20212;-79
2020/12/05 05:05:42;;;;;;;10.20;5.90;;;;;;;;;;5041013;28;20677;-79
2020/12/05 05:08:12;;;;;;;14.23;7.17;;;;;;;;;;5032032;28;20208;-78
2020/12/05 05:10:40;;;;;;;8.00;5.80;;;;;;;;;;5013142;28;20200;-80
2020/12/05 05:13:13;;;;;;;7.57;5.77;;;;;;;;;;5011572;28;20207;-79
2020/12/05 05:15:42;;;;;;;9.20;5.67;;;;;;;;;;5030094;28;20208;-79
2020/12/05 05:18:11;;;;;;;8.53;6.00;;;;;;;;;;5027488;28;20200;-79
2020/12/05 05:20:41;;;;;;;8.40;6.00;;;;;;;;;;5030883;28;20238;-79
2020/12/05 05:23:14;;;;;;;8.43;6.40;;;;;;;;;;5030162;28;20215;-80
2020/12/05 05:25:53;;;;;;;8.87;6.50;;;;;;;;;;5045058;28;20564;-79
2020/12/05 05:28:23;;;;;;;7.93;6.23;;;;;;;;;;5037224;28;20209;-79
2020/12/05 05:31:03;;;;;;;7.33;5.63;;;;;;;;;;5021537;28;20228;-78
2020/12/05 05:33:39;;;;;;;7.43;5.77;;;;;;;;;;5048009;28;20597;-79
2020/12/05 05:36:18;;;;;;;8.17;5.63;;;;;;;;;;5055474;28;20215;-80
2020/12/05 05:38:56;;;;;;;8.07;5.53;;;;;;;;;;5063996;28;20211;-80
2020/12/05 05:41:24;;;;;;;8.33;6.00;;;;;;;;;;5040160;28;20224;-79
2020/12/05 05:43:56;;;;;;;8.27;5.50;;;;;;;;;;5051492;28;20204;-79
2020/12/05 05:46:29;;;;;;;7.27;6.20;;;;;;;;;;5030896;28;20577;-79
2020/12/05 05:48:58;;;;;;;8.40;6.37;;;;;;;;;;5027243;28;20204;-79
2020/12/05 05:51:40;;;;;;;8.23;5.67;;;;;;;;;;5020686;28;20795;-79
2020/12/05 05:54:22;;;;;;;7.80;5.90;;;;;;;;;;5007394;28;20208;-79
2020/12/05 05:57:04;;;;;;;7.00;5.60;;;;;;;;;;5025866;28;20571;-79
2020/12/05 05:59:33;;;;;;;8.53;6.13;;;;;;;;;;5024887;28;20211;-79
2020/12/05 06:02:02;;;;;;;8.70;6.47;;;;;;;;;;5023133;28;20582;-78
2020/12/05 06:04:36;;;;;;;10.20;6.60;;;;;;;;;;5028369;28;20454;-79
2020/12/05 06:07:05;;;;;;;10.00;6.50;;;;;;;;;;5017308;28;20203;-79
2020/12/05 06:09:43;;;;;;;8.43;6.63;;;;;;;;;;5011499;28;20211;-79
2020/12/05 06:12:12;;;;;;;6.43;5.50;;;;;;;;;;5016411;28;20231;-78
2020/12/05 06:14:43;;;;;;;9.20;5.93;;;;;;;;;;5033318;28;20205;-79
2020/12/05 06:17:11;;;;;;;8.27;5.93;;;;;;;;;;5051928;28;20200;-79
2020/12/05 06:19:41;;;;;;;8.47;5.97;;;;;;;;;;5027340;28;20666;-78
2020/12/05 06:22:19;;;;;;;7.47;5.70;;;;;;;;;;5028319;28;20231;-79
2020/12/05 06:24:51;;;;;;;9.73;6.43;;;;;;;;;;5030603;28;20569;-79
2020/12/05 06:27:20;;;;;;;10.10;6.23;;;;;;;;;;5021218;28;20215;-78
2020/12/05 06:29:48;;;;;;;8.60;6.43;;;;;;;;;;5009734;28;20200;-78
2020/12/05 06:32:40;;;;;;;9.27;6.07;;;;;;;;;;5025446;28;20220;-80
2020/12/05 06:35:34;;;;;;;8.00;6.00;;;;;;;;;;5024113;28;20658;-79
2020/12/05 06:38:02;;;;;;;10.17;6.20;;;;;;;;;;5018448;28;20209;-79
2020/12/05 06:40:39;;;;;;;8.03;5.90;;;;;;;;;;5024966;28;20208;-79
2020/12/05 06:43:13;;;;;;;9.23;6.33;;;;;;;;;;5045986;28;20211;-79
2020/12/05 06:45:42;;;;;;;9.83;6.43;;;;;;;;;;5029981;28;20207;-79
2020/12/05 06:48:33;;;;;;;8.33;5.97;;;;;;;;;;5025542;28;20203;-80
2020/12/05 06:51:02;;;;;;;7.47;5.67;;;;;;;;;;5041702;28;20223;-79
2020/12/05 06:53:31;;;;;;;8.73;6.43;;;;;;;;;;5024905;28;20208;-79
2020/12/05 06:56:00;;;;;;;9.17;6.20;;;;;;;;;;5024833;28;20196;-79
2020/12/05 06:58:29;;;;;;;6.67;5.27;;;;;;;;;;5010692;28;20215;-79
2020/12/05 07:00:58;;;;;;;7.43;5.77;;;;;;;;;;5029229;28;20235;-79
2020/12/05 07:03:27;;;;;;;6.37;5.03;;;;;;;;;;5051612;28;20208;-79
2020/12/05 07:05:56;;;;;;;8.10;5.70;;;;;;;;;;5020147;28;20589;-79
2020/12/05 07:08:30;;;;;;;7.63;5.53;;;;;;;;;;5013397;28;20209;-79
2020/12/05 07:11:00;;;;;;;7.73;5.30;;;;;;;;;;5026177;28;20220;-79
2020/12/05 07:13:30;;;;;;;7.13;5.40;;;;;;;;;;5019249;28;20666;-79
2020/12/05 07:16:17;;;;;;;9.73;5.63;;;;;;;;;;5027055;28;20212;-79
2020/12/05 07:18:46;;;;;;;8.33;6.57;;;;;;;;;;5036861;28;20200;-79
2020/12/05 07:21:14;;;;;;;8.07;5.23;;;;;;;;;;5024215;28;20236;-79
2020/12/05 07:23:43;;;;;;;7.63;5.87;;;;;;;;;;5018253;28;20209;-79
2020/12/05 07:26:11;;;;;;;7.77;5.73;;;;;;;;;;5005107;28;20201;-79
2020/12/05 07:28:44;;;;;;;7.67;5.47;;;;;;;;;;5010227;28;20208;-79
2020/12/05 07:31:12;;;;;;;7.20;5.43;;;;;;;;;;5023741;28;20225;-79
2020/12/05 07:33:40;;;;;;;8.47;5.90;;;;;;;;;;5026197;28;20212;-79
2020/12/05 07:36:09;;;;;;;8.83;6.10;;;;;;;;;;5025283;28;20204;-79
2020/12/05 07:38:39;;;;;;;6.93;5.43;;;;;;;;;;5041427;28;20223;-79
2020/12/05 07:41:09;;;;;;;8.77;5.97;;;;;;;;;;5016606;28;20217;-79
2020/12/05 07:43:38;;;;;;;7.10;5.50;;;;;;;;;;5020211;28;20217;-79
2020/12/05 07:46:07;;;;;;;8.17;5.73;;;;;;;;;;5018770;28;20677;-79
2020/12/05 07:48:35;;;;;;;6.83;5.37;;;;;;;;;;5019443;28;20212;-79
2020/12/05 07:51:07;;;;;;;7.27;5.73;;;;;;;;;;5021329;28;20220;-79
2020/12/05 07:53:35;;;;;;;5.97;4.87;;;;;;;;;;5024869;28;20565;-79
2020/12/05 07:56:15;;;;;;;7.83;5.43;;;;;;;;;;5045011;28;20215;-79
2020/12/05 07:58:47;;;;;;;9.57;5.60;;;;;;;;;;5016145;28;20210;-79
2020/12/05 08:01:29;;;;;;;7.70;5.30;;;;;;;;;;5022960;28;20231;-79
2020/12/05 08:04:27;;;;;;;8.83;5.50;;;;;;;;;;5021584;28;20212;-79
2020/12/05 08:07:01;;;;;;;8.00;5.60;;;;;;;;;;4999558;28;20200;-79
2020/12/05 08:09:33;;;;;;;11.17;6.03;;;;;;;;;;5029262;28;20196;-78
2020/12/05 08:12:05;;;;;;;8.53;6.07;;;;;;;;;;5026993;28;20730;-79
2020/12/05 08:14:34;;;;;;;9.60;6.63;;;;;;;;;;5026058;28;20368;-78
2020/12/05 08:17:03;;;;;;;9.80;6.87;;;;;;;;;;5003962;28;20582;-78
2020/12/05 08:19:31;;;;;;;10.27;7.03;;;;;;;;;;5046524;28;20707;-79
2020/12/05 08:22:07;;;;;;;11.33;7.23;;;;;;;;;;5024051;28;20434;-78
2020/12/05 08:24:49;;;;;;;11.87;6.63;;;;;;;;;;5059052;28;20226;-79
2020/12/05 08:27:19;;;;;;;8.33;6.07;;;;;;;;;;5031385;28;20211;-79
2020/12/05 08:29:48;;;;;;;7.70;5.77;;;;;;;;;;5030726;28;20219;-78
2020/12/05 08:32:20;;;;;;;7.40;5.37;;;;;;;;;;5039127;28;20736;-79
2020/12/05 08:35:02;;;;;;;7.33;5.17;;;;;;;;;;5019528;28;20208;-78
2020/12/05 08:37:38;;;;;;;5.47;4.50;;;;;;;;;;5006701;28;20212;-78
2020/12/05 08:40:06;;;;;;;7.37;5.00;;;;;;;;;;5014777;28;20558;-78
2020/12/05 08:42:46;;;;;;;6.00;4.73;;;;;;;;;;5003004;28;20228;-78
2020/12/05 08:45:15;;;;;;;6.20;4.90;;;;;;;;;;5047779;28;20204;-78
2020/12/05 08:47:46;;;;;;;7.50;5.40;;;;;;;;;;5031459;28;20584;-78
2020/12/05 08:50:28;;;;;;;7.67;5.37;;;;;;;;;;5028849;28;20208;-78
2020/12/05 08:52:59;;;;;;;6.97;5.27;;;;;;;;;;5039491;28;20608;-78
2020/12/05 08:55:32;;;;;;;7.13;5.50;;;;;;;;;;5015639;28;20685;-78
2020/12/05 08:58:06;;;;;;;6.83;5.40;;;;;;;;;;5010338;28;20220;-78
2020/12/05 09:00:37;;;;;;;7.80;5.83;;;;;;;;;;5024838;28;20222;-78
2020/12/05 09:03:17;;;;;;;7.90;5.93;;;;;;;;;;5036186;28;20212;-79
2020/12/05 09:05:48;;;;;;;8.03;5.90;;;;;;;;;;5041604;28;20204;-78
2020/12/05 09:08:22;;;;;;;7.27;5.73;;;;;;;;;;5046381;28;20201;-79
2020/12/05 09:10:52;;;;;;;9.00;6.20;;;;;;;;;;5034799;28;20702;-78
2020/12/05 09:13:24;;;;;;;7.17;5.17;;;;;;;;;;5034801;28;20200;-78
2020/12/05 09:16:03;;;;;;;8.77;5.70;;;;;;;;;;5029270;28;20200;-78
2020/12/05 09:18:52;;;;;;;7.60;5.30;;;;;;;;;;5024959;28;20207;-78
2020/12/05 09:21:21;;;;;;;8.30;6.03;;;;;;;;;;5025477;28;20259;-78
2020/12/05 09:23:58;;;;;;;7.90;5.93;;;;;;;;;;5031570;28;20208;-77
2020/12/05 09:26:26;;;;;;;7.63;5.83;;;;;;;;;;5021369;28;20231;-78
2020/12/05 09:28:57;;;;;;;7.87;5.80;;;;;;;;;;5026584;28;20196;-78
2020/12/05 09:31:25;;;;;;;8.63;5.83;;;;;;;;;;5026512;28;20607;-77
2020/12/05 09:33:54;;;;;;;8.83;5.27;;;;;;;;;;5030306;28;20208;-77
2020/12/05 09:36:22;;;;;;;8.70;6.00;;;;;;;;;;5028580;28;20204;-78
2020/12/05 09:38:50;;;;;;;7.60;5.83;;;;;;;;;;5034378;28;20600;-77
2020/12/05 09:41:19;;;;;;;7.03;5.50;;;;;;;;;;5015729;28;20700;-77
2020/12/05 09:43:46;;;;;;;8.30;5.93;;;;;;;;;;5029285;28;20225;-77
2020/12/05 09:46:15;;;;;;;7.57;5.83;;;;;;;;;;5030322;28;20208;-77
2020/12/05 09:48:42;;;;;;;13.13;6.17;;;;;;;;;;5056792;28;20652;-77
2020/12/05 09:51:10;;;;;;;8.00;6.23;;;;;;;;;;5067621;28;20220;-78
2020/12/05 09:53:37;;;;;;;8.20;6.00;;;;;;;;;;5030849;28;20554;-78
2020/12/05 09:56:05;;;;;;;9.63;6.73;;;;;;;;;;5049023;28;20214;-78
2020/12/05 09:58:32;;;;;;;9.70;6.10;;;;;;;;;;5045541;28;20212;-78
2020/12/05 10:01:00;;;;;;;8.53;6.13;;;;;;;;;;5043020;28;20701;-79
2020/12/05 10:03:28;;;;;;;9.13;6.23;;;;;;;;;;5031617;28;20228;-78
2020/12/05 10:05:56;;;;;;;10.03;6.50;;;;;;;;;;5031162;28;20208;-78
2020/12/05 10:08:24;;;;;;;9.70;6.17;;;;;;;;;;5023468;28;20540;-78
2020/12/05 10:10:53;;;;;;;6.93;5.73;;;;;;;;;;5057949;28;20228;-77
2020/12/05 10:13:20;;;;;;;7.70;5.57;;;;;;;;;;5025618;28;20227;-77
2020/12/05 10:15:48;;;;;;;9.33;6.53;;;;;;;;;;5002545;28;20211;-77
2020/12/05 10:18:16;;;;;;;8.83;5.87;;;;;;;;;;5007241;28;20213;-78
2020/12/05 10:20:45;;;;;;;7.43;5.40;;;;;;;;;;5028041;28;20204;-77
2020/12/05 10:23:12;;;;;;;7.83;6.00;;;;;;;;;;5026259;28;20232;-77
2020/12/05 10:25:40;;;;;;;8.70;6.03;;;;;;;;;;5016067;28;20215;-78
2020/12/05 10:28:07;;;;;;;8.90;6.10;;;;;;;;;;5034364;28;20216;-77
2020/12/05 10:30:35;;;;;;;11.60;5.93;;;;;;;;;;5037787;28;20671;-79
2020/12/05 10:33:03;;;;;;;9.27;6.27;;;;;;;;;;5064111;28;20662;-77
2020/12/05 10:35:30;;;;;;;10.70;6.87;;;;;;;;;;5018580;28;20207;-77
2020/12/05 10:37:59;;;;;;;8.77;6.17;;;;;;;;;;5027992;28;20208;-76
2020/12/05 10:40:27;;;;;;;10.07;6.67;;;;;;;;;;5024122;28;20196;-77
2020/12/05 10:42:54;;;;;;;8.87;5.70;;;;;;;;;;5040703;28;20228;-78
2020/12/05 10:45:22;;;;;;;8.57;5.70;;;;;;;;;;5005333;28;20213;-77
2020/12/05 10:47:49;;;;;;;9.27;6.20;;;;;;;;;;5057287;28;20697;-77
2020/12/05 10:50:17;;;;;;;8.90;6.50;;;;;;;;;;5029660;28;20204;-77
2020/12/05 10:52:45;;;;;;;8.90;6.43;;;;;;;;;;5041520;28;20212;-77
2020/12/05 10:55:13;;;;;;;11.23;7.10;;;;;;;;;;5015665;28;20571;-79
2020/12/05 10:57:41;;;;;;;11.37;7.37;;;;;;;;;;5025914;28;20208;-77
2020/12/05 11:00:08;;;;;;;11.87;7.37;;;;;;;;;;5033078;28;20293;-77
2020/12/05 11:02:36;;;;;;;12.30;8.33;;;;;;;;;;5026033;28;20230;-77
2020/12/05 11:05:03;;;;;;;11.23;7.07;;;;;;;;;;5026184;28;20204;-77
2020/12/05 11:07:31;;;;;;;9.03;6.03;;;;;;;;;;5022183;28;20212;-78
2020/12/05 11:09:58;;;;;;;9.37;5.97;;;;;;;;;;5023505;28;20201;-77
2020/12/05 11:12:27;;;;;;;7.60;5.83;;;;;;;;;;5030278;28;20600;-76
2020/12/05 11:14:55;;;;;;;7.87;5.47;;;;;;;;;;5016431;28;20216;-77
2020/12/05 11:17:22;;;;;;;9.80;6.67;;;;;;;;;;5014019;28;20204;-77
2020/12/05 11:19:50;;;;;;;9.23;6.53;;;;;;;;;;5018540;28;20236;-77
2020/12/05 11:22:18;;;;;;;9.97;7.37;;;;;;;;;;5001709;28;20232;-76
2020/12/05 11:24:45;;;;;;;11.10;8.00;;;;;;;;;;5018561;28;20208;-76
2020/12/05 11:27:13;;;;;;;19.87;8.37;;;;;;;;;;5018199;28;20200;-77
2020/12/05 11:29:41;;;;;;;12.83;8.43;;;;;;;;;;5012244;28;20669;-76
2020/12/05 11:32:09;;;;;;;11.87;8.33;;;;;;;;;;5036814;28;20240;-77
2020/12/05 11:34:37;;;;;;;12.57;8.33;;;;;;;;;;5034097;28;20203;-76
2020/12/05 11:37:04;;;;;;;15.00;9.50;;;;;;;;;;5018207;28;20662;-77
2020/12/05 11:39:32;;;;;;;15.23;9.90;;;;;;;;;;5030444;28;20226;-77
2020/12/05 11:41:59;;;;;;;14.20;9.37;;;;;;;;;;5046411;28;20482;-77
2020/12/05 11:44:27;;;;;;;14.67;10.37;;;;;;;;;;5031757;28;20231;-77
2020/12/05 11:46:56;;;;;;;14.13;8.67;;;;;;;;;;5028085;28;20204;-77
2020/12/05 11:49:24;;;;;;;17.17;11.07;;;;;;;;;;5019775;28;20666;-76
2020/12/05 11:51:52;;;;;;;15.87;10.70;;;;;;;;;;5040513;28;20220;-77
2020/12/05 11:54:20;;;;;;;16.77;10.17;;;;;;;;;;5026428;28;20209;-79
2020/12/05 11:56:48;;;;;;;16.83;10.13;;;;;;;;;;4997476;28;20211;-77
2020/12/05 11:59:15;;;;;;;19.67;10.23;;;;;;;;;;5014912;28;20219;-76
2020/12/05 12:01:43;;;;;;;16.10;9.83;;;;;;;;;;5041107;28;20623;-76
2020/12/05 12:04:12;;;;;;;14.73;9.87;;;;;;;;;;5010668;28;20233;-77
2020/12/05 12:06:39;;;;;;;14.43;9.33;;;;;;;;;;5048188;28;20209;-76
2020/12/05 12:09:08;;;;;;;15.53;9.90;;;;;;;;;;5012123;28;20212;-77
2020/12/05 12:11:35;;;;;;;13.50;9.23;;;;;;;;;;5026343;28;20243;-76
2020/12/05 12:14:03;;;;;;;15.63;9.17;;;;;;;;;;5035279;28;20215;-76
2020/12/05 12:16:30;;;;;;;11.93;8.87;;;;;;;;;;5018666;28;20580;-76
2020/12/05 12:18:58;;;;;;;11.97;8.00;;;;;;;;;;5022677;28;20597;-76
2020/12/05 12:21:27;;;;;;;13.77;8.50;;;;;;;;;;5032291;28;20225;-77
2020/12/05 12:23:55;;;;;;;11.63;8.13;;;;;;;;;;5026454;28;20599;-78
2020/12/05 12:26:28;;;;;;;11.97;8.00;;;;;;;;;;5023957;28;20216;-76
2020/12/05 12:28:56;;;;;;;10.67;7.70;;;;;;;;;;5023556;28;20589;-77
2020/12/05 12:31:23;;;;;;;10.93;7.47;;;;;;;;;;5029989;28;20231;-76
2020/12/05 12:33:51;;;;;;;9.63;6.60;;;;;;;;;;5034668;28;20196;-77
2020/12/05 12:36:19;;;;;;;8.90;6.40;;;;;;;;;;5019474;28;20212;-77
2020/12/05 12:38:48;;;;;;;9.73;6.20;;;;;;;;;;5008139;28;20708;-78
2020/12/05 12:41:17;;;;;;;10.07;5.97;;;;;;;;;;5024485;28;20224;-76
2020/12/05 12:43:45;;;;;;;7.70;6.00;;;;;;;;;;5057172;28;20231;-77
2020/12/05 12:46:13;;;;;;;8.90;6.20;;;;;;;;;;5025516;28;20203;-76
2020/12/05 12:48:41;;;;;;;9.17;6.20;;;;;;;;;;5023177;28;20208;-78
2020/12/05 12:51:10;;;;;;;8.40;6.07;;;;;;;;;;5018545;28;20244;-77
2020/12/05 12:53:37;;;;;;;9.03;6.40;;;;;;;;;;5016862;28;20292;-78
2020/12/05 12:56:06;;;;;;;8.50;6.00;;;;;;;;;;5026890;28;20200;-78
2020/12/05 12:58:42;;;;;;;8.87;6.37;;;;;;;;;;5028187;28;20212;-77
2020/12/05 13:01:10;;;;;;;8.40;5.90;;;;;;;;;;5021068;28;20584;-77
2020/12/05 13:03:38;;;;;;;8.90;5.63;;;;;;;;;;5004881;28;20231;-78
2020/12/05 13:06:06;;;;;;;7.40;5.30;;;;;;;;;;5021017;28;20211;-77
2020/12/05 13:08:34;;;;;;;7.60;5.70;;;;;;;;;;5014325;28;20208;-77
2020/12/05 13:11:02;;;;;;;7.07;5.30;;;;;;;;;;5012317;28;20216;-77
2020/12/05 13:13:30;;;;;;;7.37;5.67;;;;;;;;;;5028547;28;20212;-78
2020/12/05 13:15:58;;;;;;;9.00;5.87;;;;;;;;;;5030884;28;20213;-76
2020/12/05 13:18:26;;;;;;;7.77;6.03;;;;;;;;;;5038749;28;20201;-77
2020/12/05 13:20:53;;;;;;;6.33;5.30;;;;;;;;;;5048042;28;20232;-76
2020/12/05 13:23:21;;;;;;;8.20;5.70;;;;;;;;;;5042280;28;20224;-77
2020/12/05 13:25:49;;;;;;;9.43;6.20;;;;;;;;;;5059416;28;20599;-77
2020/12/05 13:28:16;;;;;;;7.00;5.40;;;;;;;;;;5021485;28;20204;-77
2020/12/05 13:30:44;;;;;;;7.97;5.90;;;;;;;;;;5019109;28;20294;-77
2020/12/05 13:33:13;;;;;;;6.90;5.23;;;;;;;;;;5013562;28;20204;-77
2020/12/05 13:35:40;;;;;;;7.73;5.70;;;;;;;;;;5012438;28;20579;-77
2020/12/05 13:38:08;;;;;;;7.87;6.10;;;;;;;;;;5027502;28;20661;-77
2020/12/05 13:40:35;;;;;;;8.10;5.67;;;;;;;;;;5015534;28;20211;-77
2020/12/05 13:43:03;;;;;;;7.77;5.73;;;;;;;;;;5057914;28;20193;-77
2020/12/05 13:45:30;;;;;;;7.17;5.67;;;;;;;;;;5030997;28;20342;-77
2020/12/05 13:47:58;;;;;;;9.07;7.00;;;;;;;;;;5029935;28;20196;-77
2020/12/05 13:50:26;;;;;;;8.53;5.90;;;;;;;;;;5058667;28;20682;-77
2020/12/05 13:52:53;;;;;;;7.90;6.17;;;;;;;;;;5025109;28;20241;-77
2020/12/05 13:55:21;;;;;;;9.53;6.30;;;;;;;;;;5017749;28;20212;-77
2020/12/05 13:57:50;;;;;;;10.97;7.30;;;;;;;;;;5027042;28;20949;-77
2020/12/05 14:00:17;;;;;;;9.43;6.67;;;;;;;;;;5000941;28;20204;-77
2020/12/05 14:02:45;;;;;;;8.80;5.93;;;;;;;;;;5046858;28;20235;-77
2020/12/05 14:05:13;;;;;;;9.27;6.37;;;;;;;;;;5018110;28;20228;-77
2020/12/05 14:07:40;;;;;;;10.27;7.30;;;;;;;;;;5019509;28;20208;-77
2020/12/05 14:10:08;;;;;;;11.37;7.10;;;;;;;;;;5022502;28;20216;-76
2020/12/05 14:12:36;;;;;;;10.70;6.23;;;;;;;;;;5020875;28;20235;-77
2020/12/05 14:15:05;;;;;;;12.07;7.10;;;;;;;;;;5045163;28;20224;-77
2020/12/05 14:17:33;;;;;;;11.17;7.60;;;;;;;;;;5020416;28;20224;-77
2020/12/05 14:20:01;;;;;;;9.23;6.63;;;;;;;;;;5022248;28;20209;-77
2020/12/05 14:22:29;;;;;;;12.63;7.53;;;;;;;;;;5021166;28;20232;-78
2020/12/05 14:24:57;;;;;;;11.37;7.67;;;;;;;;;;5029777;28;20235;-78
2020/12/05 14:27:25;;;;;;;11.00;7.53;;;;;;;;;;5002140;28;20213;-77
2020/12/05 14:29:53;;;;;;;9.63;6.77;;;;;;;;;;5003139;28;20212;-77
2020/12/05 14:32:22;;;;;;;13.20;8.37;;;;;;;;;;5022246;28;20231;-77
2020/12/05 14:34:49;;;;;;;12.27;7.43;;;;;;;;;;5014522;28;20213;-77
2020/12/05 14:37:17;;;;;;;11.23;7.33;;;;;;;;;;5030187;28;20559;-76
2020/12/05 14:39:45;;;;;;;10.90;7.73;;;;;;;;;;5026514;28;20223;-77
2020/12/05 14:42:13;;;;;;;11.10;7.57;;;;;;;;;;5026951;28;20709;-76
2020/12/05 14:44:40;;;;;;;12.40;8.33;;;;;;;;;;5023111;28;20247;-77
2020/12/05 14:47:08;;;;;;;11.97;7.50;;;;;;;;;;5023722;28;20212;-77
2020/12/05 14:49:35;;;;;;;15.20;8.23;;;;;;;;;;5017982;28;20216;-77